Time;durP1;ratioP1;P1;durP2;ratioP2;P2;SDS_P1;SDS_P2;PMS_P1;PMS_P2;Temp;Humidity;BMP_temperature;BMP_pressure;BME280_temperature;BME280_humidity;BME280_pressure;Samples;Min_cycle;Max_cycle;Signal;HPM_P1;HPM_P2
2024/02/28 00:00:16;;;;;;;;;;;;;;;10.65;87.66;99481.56;5116426;28;19923;-67
2024/02/28 00:02:45;;;;;;;;;;;;;;;10.60;88.00;99488.41;5116133;28;20331;-69
2024/02/28 00:05:13;;;;;;;;;;;;;;;10.57;88.03;99487.56;5117378;28;19923;-70
2024/02/28 00:07:42;;;;;;;;;;;;;;;10.50;87.93;99486.75;5117365;28;20293;-68
2024/02/28 00:10:10;;;;;;;;;;;;;;;10.46;88.17;99485.03;5117634;28;20388;-69
2024/02/28 00:12:41;;;;;;;;;;;;;;;10.43;87.71;99494.44;5117343;28;20099;-68
2024/02/28 00:15:10;;;;;;;;;;;;;;;10.43;88.44;99487.63;5117293;28;20373;-69
2024/02/28 00:17:40;;;;;;;;;;;;;;;10.42;88.43;99490.16;5117412;28;20285;-67
2024/02/28 00:20:11;;;;;;;;;;;;;;;10.41;88.66;99491.88;5099249;28;19927;-69
2024/02/28 00:22:40;;;;;;;;;;;;;;;10.39;88.50;99488.47;5116765;28;19924;-69
2024/02/28 00:25:11;;;;;;;;;;;;;;;10.39;88.31;99483.38;5116707;28;20038;-69
2024/02/28 00:27:41;;;;;;;;;;;;;;;10.38;88.60;99491.91;5116989;28;19934;-68
2024/02/28 00:30:10;;;;;;;;;;;;;;;10.39;88.91;99487.66;5117855;28;20315;-67
2024/02/28 00:32:38;;;;;;;;;;;;;;;10.37;88.51;99494.44;5115181;28;20374;-68
2024/02/28 00:35:07;;;;;;;;;;;;;;;10.36;88.67;99498.72;5116916;27;19924;-67
2024/02/28 00:37:36;;;;;;;;;;;;;;;10.34;88.85;99490.19;5116737;28;20374;-69
2024/02/28 00:40:04;;;;;;;;;;;;;;;10.38;88.57;99491.91;5116816;28;19978;-67
2024/02/28 00:42:33;;;;;;;;;;;;;;;10.40;88.74;99491.88;5115234;28;19923;-69
2024/02/28 00:45:03;;;;;;;;;;;;;;;10.39;88.48;99493.56;5097893;28;19931;-68
2024/02/28 00:47:31;;;;;;;;;;;;;;;10.38;88.41;99494.44;5115689;28;20034;-69
2024/02/28 00:50:02;;;;;;;;;;;;;;;10.41;88.39;99497.00;5115453;28;19924;-69
2024/02/28 00:52:32;;;;;;;;;;;;;;;10.42;88.53;99502.91;5116517;28;19924;-67
2024/02/28 00:55:01;;;;;;;;;;;;;;;10.43;88.34;99499.53;5116550;28;20026;-67
2024/02/28 00:57:29;;;;;;;;;;;;;;;10.43;88.60;99496.97;5116136;28;19927;-66
2024/02/28 00:59:57;;;;;;;;;;;;;;;10.44;88.46;99496.97;5115145;28;19923;-67
2024/02/28 01:02:27;;;;;;;;;;;;;;;10.44;88.26;99501.22;5116170;28;19924;-67
2024/02/28 01:04:56;;;;;;;;;;;;;;;10.45;88.58;99503.78;5115954;28;20270;-67
2024/02/28 01:07:24;;;;;;;;;;;;;;;10.46;88.32;99500.34;5114917;28;19931;-69
2024/02/28 01:09:52;;;;;;;;;;;;;;;10.50;88.58;99507.16;5114960;28;20415;-66
2024/02/28 01:12:21;;;;;;;;;;;;;;;10.53;88.58;99512.22;5116762;28;19924;-67
2024/02/28 01:14:49;;;;;;;;;;;;;;;10.55;88.46;99513.09;5115789;28;19928;-67
2024/02/28 01:17:18;;;;;;;;;;;;;;;10.56;88.36;99509.69;5114492;28;20354;-69
2024/02/28 01:19:48;;;;;;;;;;;;;;;10.56;88.13;99506.28;5115648;28;20343;-67
2024/02/28 01:22:17;;;;;;;;;;;;;;;10.54;88.11;99503.75;5116306;28;20374;-66
2024/02/28 01:24:46;;;;;;;;;;;;;;;10.51;88.25;99503.75;5115305;28;19924;-67
2024/02/28 01:27:14;;;;;;;;;;;;;;;10.54;88.52;99503.75;5115934;28;19923;-66
2024/02/28 01:29:43;;;;;;;;;;;;;;;10.54;88.17;99503.75;5115680;28;20281;-67
2024/02/28 01:32:11;;;;;;;;;;;;;;;10.54;88.03;99513.09;5114566;28;19930;-67
2024/02/28 01:34:40;;;;;;;;;;;;;;;10.55;87.82;99504.59;5114553;28;19928;-69
2024/02/28 01:37:10;;;;;;;;;;;;;;;10.55;88.12;99508.00;5114424;28;19940;-69
2024/02/28 01:39:38;;;;;;;;;;;;;;;10.55;87.85;99502.91;5115836;28;19931;-68
2024/02/28 01:42:07;;;;;;;;;;;;;;;10.54;87.75;99508.84;5114409;28;19924;-69
2024/02/28 01:44:39;;;;;;;;;;;;;;;10.51;87.96;99503.75;5115357;28;20276;-70
2024/02/28 01:47:08;;;;;;;;;;;;;;;10.52;88.03;99495.25;5115616;28;19924;-69
2024/02/28 01:49:36;;;;;;;;;;;;;;;10.50;87.81;99486.75;5115048;28;19924;-69
2024/02/28 01:52:05;;;;;;;;;;;;;;;10.50;87.73;99494.41;5115092;28;19977;-68
2024/02/28 01:54:35;;;;;;;;;;;;;;;10.49;87.63;99494.38;5113507;28;20362;-70
2024/02/28 01:57:04;;;;;;;;;;;;;;;10.47;87.83;99499.50;5115384;28;20034;-69
2024/02/28 01:59:33;;;;;;;;;;;;;;;10.45;87.83;99498.66;5115375;28;20373;-68
2024/02/28 02:02:01;;;;;;;;;;;;;;;10.47;87.76;99504.63;5115217;28;19971;-69
2024/02/28 02:04:30;;;;;;;;;;;;;;;10.48;87.85;99502.91;5114530;28;19967;-69
2024/02/28 02:06:59;;;;;;;;;;;;;;;10.47;87.74;99498.66;5115725;28;19947;-69
2024/02/28 02:09:28;;;;;;;;;;;;;;;10.46;87.89;99495.25;5114777;28;19928;-69
2024/02/28 02:11:58;;;;;;;;;;;;;;;10.45;88.00;99501.22;5114861;28;19924;-69
2024/02/28 02:14:27;;;;;;;;;;;;;;;10.42;87.89;99495.25;5113339;28;19946;-69
2024/02/28 02:16:55;;;;;;;;;;;;;;;10.41;87.65;99502.09;5114775;28;19923;-69
2024/02/28 02:19:23;;;;;;;;;;;;;;;10.43;88.08;99513.13;5115537;28;20273;-68
2024/02/28 02:21:54;;;;;;;;;;;;;;;10.42;88.04;99521.63;5114983;27;19986;-69
2024/02/28 02:24:24;;;;;;;;;;;;;;;10.41;87.89;99511.44;5114666;28;20390;-69
2024/02/28 02:26:56;;;;;;;;;;;;;;;10.41;87.94;99508.91;5114638;28;19931;-69
2024/02/28 02:29:25;;;;;;;;;;;;;;;10.40;87.89;99513.13;5114929;28;19924;-68
2024/02/28 02:31:53;;;;;;;;;;;;;;;10.39;87.99;99511.44;5114801;28;20366;-69
2024/02/28 02:34:22;;;;;;;;;;;;;;;10.40;87.98;99513.13;5113638;28;19928;-69
2024/02/28 02:36:50;;;;;;;;;;;;;;;10.39;87.84;99508.88;5114831;28;19928;-69
2024/02/28 02:39:19;;;;;;;;;;;;;;;10.40;88.16;99518.25;5115101;28;19969;-69
2024/02/28 02:41:49;;;;;;;;;;;;;;;10.39;87.84;99524.19;5114447;28;19924;-69
2024/02/28 02:44:17;;;;;;;;;;;;;;;10.37;87.97;99515.69;5114558;28;20479;-69
2024/02/28 02:46:45;;;;;;;;;;;;;;;10.38;87.94;99522.50;5113418;28;19923;-69
2024/02/28 02:49:14;;;;;;;;;;;;;;;10.39;87.97;99521.63;5113393;28;19924;-69
2024/02/28 02:51:43;;;;;;;;;;;;;;;10.38;87.82;99526.75;5112882;28;19924;-68
2024/02/28 02:54:12;;;;;;;;;;;;;;;10.39;88.11;99533.56;5114260;28;20361;-69
2024/02/28 02:56:42;;;;;;;;;;;;;;;10.38;88.08;99539.50;5114590;28;19935;-68
2024/02/28 02:59:12;;;;;;;;;;;;;;;10.36;87.93;99531.00;5114658;28;20026;-68
2024/02/28 03:01:41;;;;;;;;;;;;;;;10.34;88.17;99538.66;5113220;28;19927;-69
2024/02/28 03:04:09;;;;;;;;;;;;;;;10.31;88.06;99541.22;5096043;28;19928;-69
2024/02/28 03:06:38;;;;;;;;;;;;;;;10.32;87.85;99542.91;5114489;28;19946;-69
2024/02/28 03:09:07;;;;;;;;;;;;;;;10.35;88.05;99548.00;5114104;28;19930;-69
2024/02/28 03:11:36;;;;;;;;;;;;;;;10.32;87.72;99542.91;5114156;28;19930;-69
2024/02/28 03:14:04;;;;;;;;;;;;;;;10.34;87.83;99543.75;5112949;28;20397;-69
2024/02/28 03:16:37;;;;;;;;;;;;;;;10.32;87.97;99553.13;5113125;28;19928;-69
2024/02/28 03:19:06;;;;;;;;;;;;;;;10.33;88.16;99551.41;5113135;28;20395;-69
2024/02/28 03:21:34;;;;;;;;;;;;;;;10.29;88.03;99550.59;5114625;28;20361;-69
2024/02/28 03:24:03;;;;;;;;;;;;;;;10.26;88.32;99542.94;5113990;28;19969;-69
2024/02/28 03:26:31;;;;;;;;;;;;;;;10.24;88.28;99554.84;5116013;28;19928;-69
2024/02/28 03:29:00;;;;;;;;;;;;;;;10.24;88.25;99549.75;5099973;28;19924;-68
2024/02/28 03:31:28;;;;;;;;;;;;;;;10.24;88.06;99548.91;5118760;27;20351;-69
2024/02/28 03:33:58;;;;;;;;;;;;;;;10.21;88.10;99554.84;5118066;28;19924;-70
2024/02/28 03:36:28;;;;;;;;;;;;;;;10.16;88.22;99556.56;5118262;28;19949;-69
2024/02/28 03:38:57;;;;;;;;;;;;;;;10.14;88.50;99558.25;5118024;28;19924;-68
2024/02/28 03:41:25;;;;;;;;;;;;;;;10.11;88.66;99553.13;5117932;28;19924;-69
2024/02/28 03:43:54;;;;;;;;;;;;;;;10.12;88.46;99549.75;5116272;28;20292;-69
2024/02/28 03:46:22;;;;;;;;;;;;;;;10.09;88.99;99547.19;5116324;28;19924;-70
2024/02/28 03:48:51;;;;;;;;;;;;;;;10.11;88.71;99553.13;5115939;28;19923;-69
2024/02/28 03:51:20;;;;;;;;;;;;;;;10.13;88.92;99553.13;5117541;28;20369;-69
2024/02/28 03:53:49;;;;;;;;;;;;;;;10.12;88.67;99548.91;5116083;28;19923;-70
2024/02/28 03:56:22;;;;;;;;;;;;;;;10.14;88.69;99542.94;5117639;27;19993;-69
2024/02/28 03:58:53;;;;;;;;;;;;;;;10.13;88.82;99554.00;5117658;28;19923;-69
2024/02/28 04:01:21;;;;;;;;;;;;;;;10.12;88.79;99554.88;5117626;28;19927;-71
2024/02/28 04:03:50;;;;;;;;;;;;;;;10.12;89.11;99548.91;5117367;28;19924;-70
2024/02/28 04:06:19;;;;;;;;;;;;;;;10.10;89.21;99543.78;5115851;28;19992;-69
2024/02/28 04:08:49;;;;;;;;;;;;;;;10.10;89.10;99542.06;5116173;28;20352;-69
2024/02/28 04:11:18;;;;;;;;;;;;;;;10.10;89.25;99556.53;5117473;28;20357;-68
2024/02/28 04:13:46;;;;;;;;;;;;;;;10.06;88.75;99549.72;5099070;28;20004;-69
2024/02/28 04:16:15;;;;;;;;;;;;;;;10.04;88.84;99551.44;5117256;28;19924;-69
2024/02/28 04:18:43;;;;;;;;;;;;;;;10.02;89.30;99553.13;5117206;28;19931;-69
2024/02/28 04:21:12;;;;;;;;;;;;;;;10.03;89.21;99557.38;5117116;28;20396;-68
2024/02/28 04:23:41;;;;;;;;;;;;;;;10.01;89.28;99556.53;5117035;28;20014;-69
2024/02/28 04:26:12;;;;;;;;;;;;;;;10.00;89.20;99557.38;5115159;28;19930;-69
2024/02/28 04:28:42;;;;;;;;;;;;;;;10.02;89.07;99558.22;5115847;28;19972;-69
2024/02/28 04:31:10;;;;;;;;;;;;;;;10.03;89.21;99570.09;5115796;28;19923;-69
2024/02/28 04:33:39;;;;;;;;;;;;;;;10.02;89.26;99563.34;5116886;28;19924;-69
2024/02/28 04:36:07;;;;;;;;;;;;;;;10.01;89.66;99562.47;5116126;28;20300;-69
2024/02/28 04:38:36;;;;;;;;;;;;;;;10.02;89.28;99568.44;5116894;28;19927;-69
2024/02/28 04:41:05;;;;;;;;;;;;;;;10.01;89.59;99561.63;5117056;28;19924;-69
2024/02/28 04:43:34;;;;;;;;;;;;;;;10.00;89.42;99565.91;5115164;28;19923;-69
2024/02/28 04:46:04;;;;;;;;;;;;;;;10.01;89.71;99566.72;5116406;28;20369;-69
2024/02/28 04:48:32;;;;;;;;;;;;;;;10.02;89.73;99563.34;5116624;28;19927;-69
2024/02/28 04:51:01;;;;;;;;;;;;;;;10.01;89.93;99564.16;5116658;27;19927;-69
2024/02/28 04:53:29;;;;;;;;;;;;;;;10.02;89.83;99568.44;5116195;28;19923;-69
2024/02/28 04:55:58;;;;;;;;;;;;;;;10.02;89.43;99564.19;5116511;28;19924;-69
2024/02/28 04:58:26;;;;;;;;;;;;;;;10.01;89.39;99571.81;5116057;28;19931;-69
2024/02/28 05:00:56;;;;;;;;;;;;;;;10.01;89.54;99571.81;5116160;28;20381;-68
2024/02/28 05:03:25;;;;;;;;;;;;;;;9.98;89.83;99571.84;5116067;28;19930;-70
2024/02/28 05:05:54;;;;;;;;;;;;;;;9.97;89.79;99576.09;5115964;28;19931;-68
2024/02/28 05:08:23;;;;;;;;;;;;;;;9.95;89.91;99571.84;5115877;28;20301;-69
2024/02/28 05:10:51;;;;;;;;;;;;;;;9.94;89.77;99572.66;5115833;28;19970;-69
2024/02/28 05:13:22;;;;;;;;;;;;;;;9.91;89.93;99575.25;5114917;28;19924;-69
2024/02/28 05:15:50;;;;;;;;;;;;;;;9.93;90.14;99576.09;5116285;28;19950;-69
2024/02/28 05:18:20;;;;;;;;;;;;;;;9.96;90.23;99579.47;5115801;28;20312;-69
2024/02/28 05:20:49;;;;;;;;;;;;;;;9.95;90.10;99582.88;5115669;28;19956;-69
2024/02/28 05:23:17;;;;;;;;;;;;;;;9.95;89.70;99582.03;5115979;28;19924;-69
2024/02/28 05:25:47;;;;;;;;;;;;;;;9.91;89.92;99586.25;5115296;28;20397;-69
2024/02/28 05:28:16;;;;;;;;;;;;;;;9.89;89.97;99587.97;5115543;28;20370;-69
2024/02/28 05:30:44;;;;;;;;;;;;;;;9.90;90.01;99599.03;5115754;28;19931;-69
2024/02/28 05:33:17;;;;;;;;;;;;;;;9.91;89.86;99593.09;5097463;28;19931;-70
2024/02/28 05:35:47;;;;;;;;;;;;;;;9.89;89.87;99597.31;5115715;28;19923;-68
2024/02/28 05:38:16;;;;;;;;;;;;;;;9.90;89.71;99601.56;5113824;28;20255;-69
2024/02/28 05:40:44;;;;;;;;;;;;;;;9.89;89.49;99599.84;5115598;28;19924;-68
2024/02/28 05:43:13;;;;;;;;;;;;;;;9.88;89.71;99600.72;5115571;28;19924;-70
2024/02/28 05:45:41;;;;;;;;;;;;;;;9.88;89.56;99605.81;5114982;28;19930;-68
2024/02/28 05:48:09;;;;;;;;;;;;;;;9.84;89.05;99604.09;5113385;28;19924;-69
2024/02/28 05:50:38;;;;;;;;;;;;;;;9.82;89.65;99605.81;5114220;28;20023;-69
2024/02/28 05:53:08;;;;;;;;;;;;;;;9.81;89.46;99604.13;5115359;28;19923;-68
2024/02/28 05:55:36;;;;;;;;;;;;;;;9.80;89.77;99610.06;5115589;28;19923;-69
2024/02/28 05:58:05;;;;;;;;;;;;;;;9.78;89.52;99614.31;5115185;28;19931;-69
2024/02/28 06:00:34;;;;;;;;;;;;;;;9.76;89.61;99616.00;5115261;28;20378;-69
2024/02/28 06:03:03;;;;;;;;;;;;;;;9.75;89.29;99609.19;5115227;28;19988;-68
2024/02/28 06:05:32;;;;;;;;;;;;;;;9.72;89.71;99614.28;5115150;28;20018;-69
2024/02/28 06:08:00;;;;;;;;;;;;;;;9.69;89.26;99615.16;5113850;28;19924;-69
2024/02/28 06:10:31;;;;;;;;;;;;;;;9.69;89.44;99630.44;5114663;28;20285;-68
2024/02/28 06:13:00;;;;;;;;;;;;;;;9.70;89.25;99621.06;5114757;28;20293;-68
2024/02/28 06:15:28;;;;;;;;;;;;;;;9.70;89.34;99629.56;5113734;28;19930;-68
2024/02/28 06:17:57;;;;;;;;;;;;;;;9.69;89.53;99624.50;5114916;28;19931;-69
2024/02/28 06:20:25;;;;;;;;;;;;;;;9.70;89.79;99631.28;5114472;28;19924;-68
2024/02/28 06:22:54;;;;;;;;;;;;;;;9.69;89.65;99635.53;5096640;28;19931;-70
2024/02/28 06:25:23;;;;;;;;;;;;;;;9.71;89.39;99635.53;5114163;28;19923;-69
2024/02/28 06:27:53;;;;;;;;;;;;;;;9.75;89.49;99639.78;5114572;28;20019;-69
2024/02/28 06:30:22;;;;;;;;;;;;;;;9.78;89.77;99644.88;5114661;28;20365;-68
2024/02/28 06:32:51;;;;;;;;;;;;;;;9.78;89.78;99642.34;5114593;28;19924;-68
2024/02/28 06:35:19;;;;;;;;;;;;;;;9.78;89.80;99649.97;5114723;28;19923;-69
2024/02/28 06:37:49;;;;;;;;;;;;;;;9.80;89.58;99658.47;5114713;28;19960;-69
2024/02/28 06:40:18;;;;;;;;;;;;;;;9.85;90.17;99667.00;5113533;28;19923;-69
2024/02/28 06:42:47;;;;;;;;;;;;;;;9.89;90.06;99663.59;5114324;28;19930;-69
2024/02/28 06:45:17;;;;;;;;;;;;;;;9.94;89.83;99672.09;5114593;28;19932;-69
2024/02/28 06:47:46;;;;;;;;;;;;;;;9.98;89.92;99658.53;5113061;28;19927;-68
2024/02/28 06:50:14;;;;;;;;;;;;;;;10.04;89.61;99668.72;5113376;28;19993;-69
2024/02/28 06:52:43;;;;;;;;;;;;;;;10.08;90.13;99675.50;5114401;28;19924;-69
2024/02/28 06:55:11;;;;;;;;;;;;;;;10.14;89.81;99670.47;5114580;28;19985;-69
2024/02/28 06:57:40;;;;;;;;;;;;;;;10.19;90.08;99678.97;5114547;28;20026;-69
2024/02/28 07:00:10;;;;;;;;;;;;;;;10.24;89.81;99682.38;5117299;28;19924;-69
2024/02/28 07:02:39;;;;;;;;;;;;;;;10.29;89.48;99683.22;5118700;28;19924;-69
2024/02/28 07:05:08;;;;;;;;;;;;;;;10.35;89.73;99675.56;5118928;28;19923;-69
2024/02/28 07:07:36;;;;;;;;;;;;;;;10.41;89.41;99675.59;5118185;28;19930;-69
2024/02/28 07:10:05;;;;;;;;;;;;;;;10.48;89.27;99681.53;5118206;28;19927;-68
2024/02/28 07:12:34;;;;;;;;;;;;;;;10.48;89.42;99677.28;5117255;28;19935;-69
2024/02/28 07:15:02;;;;;;;;;;;;;;;10.51;89.12;99679.81;5117433;28;20375;-68
2024/02/28 07:17:31;;;;;;;;;;;;;;;10.56;89.25;99690.88;5118287;28;20301;-69
2024/02/28 07:20:01;;;;;;;;;;;;;;;10.59;88.66;99698.53;5118376;28;20389;-69
2024/02/28 07:22:29;;;;;;;;;;;;;;;10.64;88.53;99688.31;5118293;28;19962;-69
2024/02/28 07:24:58;;;;;;;;;;;;;;;10.66;88.23;99692.56;5117936;28;19924;-69
2024/02/28 07:27:26;;;;;;;;;;;;;;;10.73;88.15;99696.81;5117693;28;19923;-69
2024/02/28 07:29:55;;;;;;;;;;;;;;;10.80;88.16;99695.09;5117834;28;19924;-69
2024/02/28 07:32:24;;;;;;;;;;;;;;;10.82;87.94;99692.56;5118046;28;19924;-69
2024/02/28 07:34:52;;;;;;;;;;;;;;;10.87;87.75;99696.78;5118253;28;19924;-69
2024/02/28 07:37:22;;;;;;;;;;;;;;;10.93;87.66;99695.94;5118394;27;19928;-69
2024/02/28 07:39:51;;;;;;;;;;;;;;;11.00;87.58;99692.50;5118252;28;20053;-69
2024/02/28 07:42:20;;;;;;;;;;;;;;;10.99;87.53;99701.84;5117848;28;19963;-69
2024/02/28 07:44:49;;;;;;;;;;;;;;;11.02;87.76;99701.88;5117507;28;20381;-68
2024/02/28 07:47:17;;;;;;;;;;;;;;;11.06;87.78;99702.72;5117418;28;19923;-69
2024/02/28 07:49:46;;;;;;;;;;;;;;;11.10;88.10;99696.75;5117689;28;19924;-68
2024/02/28 07:52:14;;;;;;;;;;;;;;;11.16;88.07;99694.16;5117888;28;20386;-68
2024/02/28 07:54:44;;;;;;;;;;;;;;;11.25;87.94;99700.09;5117351;28;20026;-68
2024/02/28 07:57:14;;;;;;;;;;;;;;;11.34;88.19;99704.34;5117473;28;19928;-68
2024/02/28 07:59:43;;;;;;;;;;;;;;;11.42;87.94;99694.94;5117594;28;19970;-68
2024/02/28 08:02:12;;;;;;;;;;;;;;;11.56;87.84;99705.97;5117175;28;20289;-69
2024/02/28 08:04:42;;;;;;;;;;;;;;;11.68;87.59;99700.81;5117687;28;19977;-69
2024/02/28 08:07:10;;;;;;;;;;;;;;;11.82;87.67;99708.41;5116995;28;19930;-69
2024/02/28 08:09:38;;;;;;;;;;;;;;;11.96;87.22;99707.47;5117066;28;19927;-68
2024/02/28 08:12:08;;;;;;;;;;;;;;;12.10;86.86;99700.56;5115368;28;19927;-68
2024/02/28 08:14:37;;;;;;;;;;;;;;;12.18;86.33;99702.22;5116143;28;19931;-69
2024/02/28 08:17:05;;;;;;;;;;;;;;;12.19;85.88;99693.69;5116832;28;19927;-69
2024/02/28 08:19:35;;;;;;;;;;;;;;;12.19;85.38;99694.53;5117197;28;19924;-68
2024/02/28 08:22:03;;;;;;;;;;;;;;;12.25;84.57;99693.63;5098906;28;20034;-69
2024/02/28 08:24:32;;;;;;;;;;;;;;;12.33;84.27;99697.00;5116792;28;20027;-69
2024/02/28 08:27:00;;;;;;;;;;;;;;;12.41;83.70;99697.75;5116621;28;20022;-69
2024/02/28 08:29:32;;;;;;;;;;;;;;;12.49;83.24;99698.56;5117065;28;19967;-68
2024/02/28 08:32:00;;;;;;;;;;;;;;;12.54;83.26;99712.19;5117333;28;20358;-68
2024/02/28 08:34:29;;;;;;;;;;;;;;;12.57;82.69;99707.03;5116632;28;20026;-69
2024/02/28 08:37:22;;;;;;;;;;;;;;;12.61;82.63;99703.59;5117106;28;20293;-69
2024/02/28 08:39:51;;;;;;;;;;;;;;;12.64;81.92;99698.44;5117154;28;19931;-69
2024/02/28 08:42:20;;;;;;;;;;;;;;;12.67;81.52;99706.06;5116432;28;20366;-68
2024/02/28 08:44:50;;;;;;;;;;;;;;;12.74;81.49;99712.88;5116942;28;20438;-69
2024/02/28 08:47:19;;;;;;;;;;;;;;;12.78;81.23;99707.69;5116493;28;19985;-68
2024/02/28 08:49:47;;;;;;;;;;;;;;;12.85;80.70;99713.59;5115117;28;19962;-69
2024/02/28 08:52:16;;;;;;;;;;;;;;;12.87;80.55;99717.00;5116590;28;19927;-68
2024/02/28 08:54:44;;;;;;;;;;;;;;;12.94;80.34;99723.75;5116539;28;19924;-69
2024/02/28 08:57:13;;;;;;;;;;;;;;;12.98;79.56;99720.31;5116494;28;20008;-68
2024/02/28 08:59:41;;;;;;;;;;;;;;;12.99;79.45;99726.28;5116356;28;20297;-69
2024/02/28 09:02:11;;;;;;;;;;;;;;;13.04;79.25;99727.94;5115369;28;19924;-68
2024/02/28 09:04:40;;;;;;;;;;;;;;;13.11;78.66;99732.16;5114924;28;19935;-69
2024/02/28 09:07:09;;;;;;;;;;;;;;;13.23;78.77;99729.47;5116174;28;20284;-69
2024/02/28 09:09:41;;;;;;;;;;;;;;;13.31;78.22;99730.25;5115904;28;19924;-69
2024/02/28 09:12:09;;;;;;;;;;;;;;;13.41;78.25;99726.69;5115975;28;20404;-68
2024/02/28 09:14:38;;;;;;;;;;;;;;;13.52;78.19;99730.88;5115698;28;19931;-68
2024/02/28 09:17:06;;;;;;;;;;;;;;;13.59;77.91;99732.47;5116052;28;20309;-69
2024/02/28 09:19:36;;;;;;;;;;;;;;;13.66;77.99;99736.66;5114816;28;19923;-69
2024/02/28 09:22:04;;;;;;;;;;;;;;;13.73;77.53;99728.03;5115559;28;20084;-69
2024/02/28 09:24:33;;;;;;;;;;;;;;;13.76;76.97;99736.56;5115444;28;19967;-70
2024/02/28 09:27:03;;;;;;;;;;;;;;;13.80;76.43;99734.78;5115289;28;19969;-69
2024/02/28 09:29:31;;;;;;;;;;;;;;;13.83;76.57;99745.00;5115269;28;19966;-69
2024/02/28 09:32:00;;;;;;;;;;;;;;;13.86;76.60;99744.97;5114695;28;19968;-69
2024/02/28 09:34:28;;;;;;;;;;;;;;;13.94;76.76;99740.59;5115193;28;20266;-69
2024/02/28 09:36:58;;;;;;;;;;;;;;;14.01;76.45;99749.91;5115007;28;19986;-69
2024/02/28 09:39:27;;;;;;;;;;;;;;;14.05;76.81;99746.44;5115598;28;19966;-69
2024/02/28 09:41:55;;;;;;;;;;;;;;;14.12;76.41;99750.59;5115281;28;20026;-69
2024/02/28 09:44:24;;;;;;;;;;;;;;;14.15;76.08;99755.69;5115483;28;20022;-69
2024/02/28 09:46:53;;;;;;;;;;;;;;;14.18;75.27;99758.19;5114249;28;20329;-69
2024/02/28 09:49:21;;;;;;;;;;;;;;;14.27;74.80;99758.09;5115138;28;19923;-69
2024/02/28 09:51:50;;;;;;;;;;;;;;;14.32;74.48;99761.47;5115398;28;19924;-69
2024/02/28 09:54:20;;;;;;;;;;;;;;;14.40;74.37;99759.63;5115350;28;19924;-69
2024/02/28 09:56:52;;;;;;;;;;;;;;;14.43;73.93;99769.88;5114143;28;19978;-68
2024/02/28 09:59:21;;;;;;;;;;;;;;;14.49;73.56;99764.63;5113927;28;19969;-69
2024/02/28 10:01:57;;;;;;;;;;;;;;;14.54;73.02;99773.09;5115130;28;19924;-68
2024/02/28 10:04:27;;;;;;;;;;;;;;;14.50;72.80;99774.03;5114817;28;20010;-70
2024/02/28 10:06:56;;;;;;;;;;;;;;;14.53;72.62;99775.72;5108852;28;19985;-68
2024/02/28 10:09:27;;;;;;;;;;;;;;;14.50;72.52;99771.47;5101850;28;19933;-70
2024/02/28 10:11:55;;;;;;;;;;;;;;;14.40;72.63;99769.91;5103465;28;20015;-69
2024/02/28 10:14:25;;;;;;;;;;;;;;;14.39;73.25;99773.34;5105200;28;19928;-69
2024/02/28 10:16:54;;;;;;;;;;;;;;;14.40;73.32;99777.59;5103803;28;19971;-68
2024/02/28 10:19:23;;;;;;;;;;;;;;;14.40;73.61;99775.03;5103378;28;20030;-70
2024/02/28 10:21:52;;;;;;;;;;;;;;;14.37;73.35;99779.38;5105284;28;19985;-68
2024/02/28 10:24:21;;;;;;;;;;;;;;;14.37;73.78;99780.22;5114738;28;19924;-69
2024/02/28 10:26:56;;;;;;;;;;;;;;;14.38;73.78;99781.91;5115566;28;19930;-69
2024/02/28 10:29:25;;;;;;;;;;;;;;;14.41;73.86;99784.44;5114711;28;19927;-68
2024/02/28 10:31:56;;;;;;;;;;;;;;;14.42;73.66;99786.13;5114527;28;19930;-70
2024/02/28 10:34:24;;;;;;;;;;;;;;;14.46;73.88;99786.94;5114432;28;19977;-68
2024/02/28 10:36:53;;;;;;;;;;;;;;;14.45;74.15;99782.66;5113312;28;19923;-69
2024/02/28 10:39:23;;;;;;;;;;;;;;;14.43;73.85;99782.72;5114777;28;19938;-69
2024/02/28 10:41:53;;;;;;;;;;;;;;;14.46;74.30;99774.97;5114702;28;19924;-69
2024/02/28 10:44:22;;;;;;;;;;;;;;;14.49;73.91;99779.22;5114667;28;19924;-68
2024/02/28 10:46:51;;;;;;;;;;;;;;;14.51;74.08;99774.91;5113449;28;19924;-68
2024/02/28 10:49:20;;;;;;;;;;;;;;;14.50;74.11;99776.59;5114212;28;20266;-69
2024/02/28 10:51:50;;;;;;;;;;;;;;;14.48;74.33;99780.91;5113354;28;19928;-70
2024/02/28 10:54:22;;;;;;;;;;;;;;;14.52;74.38;99780.00;5114579;28;19927;-69
2024/02/28 10:56:50;;;;;;;;;;;;;;;14.54;74.43;99778.25;5115170;28;19924;-69
2024/02/28 10:59:22;;;;;;;;;;;;;;;14.55;74.74;99779.97;5113429;28;20014;-69
2024/02/28 11:01:51;;;;;;;;;;;;;;;14.59;74.79;99775.59;5114223;28;19955;-69
2024/02/28 11:04:20;;;;;;;;;;;;;;;14.64;75.15;99779.81;5114416;28;19974;-69
2024/02/28 11:06:49;;;;;;;;;;;;;;;14.70;74.97;99779.72;5114435;28;19934;-69
2024/02/28 11:09:23;;;;;;;;;;;;;;;14.71;75.74;99783.97;5095936;28;19928;-69
2024/02/28 11:11:52;;;;;;;;;;;;;;;14.72;75.78;99777.13;5113302;28;19973;-69
2024/02/28 11:14:24;;;;;;;;;;;;;;;14.75;75.76;99783.06;5113272;28;19975;-68
2024/02/28 11:17:02;;;;;;;;;;;;;;;14.81;75.66;99781.25;5114446;28;19924;-68
2024/02/28 11:19:32;;;;;;;;;;;;;;;14.88;75.74;99780.28;5114429;28;19924;-69
2024/02/28 11:22:03;;;;;;;;;;;;;;;14.91;75.45;99777.66;5114369;28;20370;-68
2024/02/28 11:24:34;;;;;;;;;;;;;;;14.99;74.75;99786.09;5111951;28;20313;-69
2024/02/28 11:27:03;;;;;;;;;;;;;;;15.09;74.62;99782.50;5113253;28;19923;-69
2024/02/28 11:29:33;;;;;;;;;;;;;;;15.14;73.77;99778.13;5113802;28;20460;-69
2024/02/28 11:32:02;;;;;;;;;;;;;;;15.20;73.69;99780.59;5112738;28;19924;-69
2024/02/28 11:34:30;;;;;;;;;;;;;;;15.20;73.59;99781.44;5112907;28;20308;-68
2024/02/28 11:36:59;;;;;;;;;;;;;;;15.23;73.45;99786.53;5113842;28;19928;-69
2024/02/28 11:39:29;;;;;;;;;;;;;;;15.24;73.25;99787.34;5114329;28;19928;-69
2024/02/28 11:42:09;;;;;;;;;;;;;;;15.27;73.32;99784.75;5114518;28;19972;-69
2024/02/28 11:44:40;;;;;;;;;;;;;;;15.27;73.04;99787.31;5114194;28;19928;-68
2024/02/28 11:47:10;;;;;;;;;;;;;;;15.28;72.87;99786.44;5115373;28;19928;-69
2024/02/28 11:49:39;;;;;;;;;;;;;;;15.28;72.43;99784.69;5117836;27;19928;-68
2024/02/28 11:52:09;;;;;;;;;;;;;;;15.35;72.60;99782.88;5118116;28;19928;-68
2024/02/28 11:54:38;;;;;;;;;;;;;;;15.39;72.20;99782.81;5117174;28;19927;-68
2024/02/28 11:57:06;;;;;;;;;;;;;;;15.49;71.61;99773.22;5116164;28;20335;-69
2024/02/28 11:59:34;;;;;;;;;;;;;;;15.68;70.84;99774.56;5117633;28;19990;-68
2024/02/28 12:02:12;;;;;;;;;;;;;;;15.79;70.41;99777.75;5117524;28;19923;-69
2024/02/28 12:04:40;;;;;;;;;;;;;;;15.84;69.77;99765.63;5116453;28;19927;-68
2024/02/28 12:07:09;;;;;;;;;;;;;;;15.85;69.22;99771.63;5117459;28;19977;-69
2024/02/28 12:09:39;;;;;;;;;;;;;;;15.84;68.35;99775.94;5116840;28;19928;-70
2024/02/28 12:12:10;;;;;;;;;;;;;;;15.88;68.29;99771.59;5115944;28;19924;-69
2024/02/28 12:14:39;;;;;;;;;;;;;;;15.89;67.13;99774.13;5117316;28;19994;-69
2024/02/28 12:17:09;;;;;;;;;;;;;;;15.93;66.43;99770.59;5117336;28;19923;-68
2024/02/28 12:19:37;;;;;;;;;;;;;;;15.99;66.80;99767.91;5116039;28;19946;-68
2024/02/28 12:22:05;;;;;;;;;;;;;;;16.04;66.65;99776.38;5117340;28;19924;-68
2024/02/28 12:24:35;;;;;;;;;;;;;;;16.10;66.93;99771.09;5116884;28;19931;-69
2024/02/28 12:27:03;;;;;;;;;;;;;;;16.14;66.80;99771.03;5116236;28;19923;-69
2024/02/28 12:29:32;;;;;;;;;;;;;;;16.14;66.97;99774.44;5115607;28;19931;-69
2024/02/28 12:32:00;;;;;;;;;;;;;;;16.18;66.87;99764.91;5116632;28;20297;-69
2024/02/28 12:34:30;;;;;;;;;;;;;;;16.20;66.71;99763.16;5117022;28;19960;-68
2024/02/28 12:36:59;;;;;;;;;;;;;;;16.27;66.52;99754.44;5116878;28;19928;-69
2024/02/28 12:39:28;;;;;;;;;;;;;;;16.33;66.60;99762.00;5116879;27;19984;-70
2024/02/28 12:41:56;;;;;;;;;;;;;;;16.44;66.53;99757.44;5117115;28;19924;-68
2024/02/28 12:44:25;;;;;;;;;;;;;;;16.64;66.67;99761.28;5115607;28;19931;-69
2024/02/28 12:46:53;;;;;;;;;;;;;;;16.92;66.28;99745.13;5115505;28;19931;-69
2024/02/28 12:49:22;;;;;;;;;;;;;;;17.08;65.50;99749.88;5116492;28;19994;-69
2024/02/28 12:51:51;;;;;;;;;;;;;;;17.18;64.87;99748.72;5116677;28;19976;-68
2024/02/28 12:54:20;;;;;;;;;;;;;;;17.24;64.56;99753.75;5116517;28;19923;-69
2024/02/28 12:56:49;;;;;;;;;;;;;;;17.18;64.13;99746.16;5116363;28;19934;-70